createdAt,value
2018-05-04T00:00:57.834Z,6.26
2018-05-04T00:03:26.247Z,6.21
2018-05-04T00:05:54.666Z,6.20
2018-05-04T00:08:23.076Z,6.20
2018-05-04T00:10:52.253Z,6.16
2018-05-04T00:13:20.649Z,6.18
2018-05-04T00:15:49.806Z,6.07
2018-05-04T00:18:18.173Z,6.08
2018-05-04T00:20:46.574Z,6.13
2018-05-04T00:23:15.837Z,6.04
2018-05-04T00:25:45.043Z,6.07
2018-05-04T00:28:13.424Z,6.07
2018-05-04T00:30:41.834Z,6.05
2018-05-04T00:33:12.104Z,6.05
2018-05-04T00:35:40.541Z,6.13
2018-05-04T00:38:09.036Z,6.03
2018-05-04T00:40:38.230Z,6.02
2018-05-04T00:43:07.218Z,6.05
2018-05-04T00:45:36.478Z,6.07
2018-05-04T00:48:05.974Z,5.96
2018-05-04T00:50:34.499Z,5.88
2018-05-04T00:53:02.898Z,5.86
2018-05-04T00:55:31.354Z,5.93
2018-05-04T00:58:00.536Z,5.86
2018-05-04T01:00:28.921Z,5.88
2018-05-04T01:02:57.330Z,5.85
2018-05-04T01:05:25.760Z,5.86
2018-05-04T01:07:54.145Z,5.80
2018-05-04T01:10:22.908Z,5.76
2018-05-04T01:12:51.322Z,5.72
2018-05-04T01:15:19.721Z,5.66
2018-05-04T01:17:48.106Z,5.60
2018-05-04T01:20:16.604Z,5.54
2018-05-04T01:22:45.779Z,5.50
2018-05-04T01:25:14.188Z,5.52
2018-05-04T01:27:43.354Z,5.66
2018-05-04T01:30:12.502Z,5.66
2018-05-04T01:32:41.715Z,5.65
2018-05-04T01:35:10.089Z,5.57
2018-05-04T01:37:38.695Z,5.52
2018-05-04T01:40:07.090Z,5.45
2018-05-04T01:42:35.465Z,5.39
2018-05-04T01:45:03.867Z,5.31
2018-05-04T01:47:32.275Z,5.37
2018-05-04T01:50:00.682Z,5.31
2018-05-04T01:52:29.833Z,5.26
2018-05-04T01:54:58.209Z,5.27
2018-05-04T01:57:26.611Z,5.23
2018-05-04T01:59:55.008Z,5.23
2018-05-04T02:02:23.397Z,5.16
2018-05-04T02:04:51.786Z,5.10
2018-05-04T02:07:20.191Z,5.09
2018-05-04T02:09:48.622Z,5.13
2018-05-04T02:12:17.009Z,5.09
2018-05-04T02:14:45.397Z,5.06
2018-05-04T02:17:13.794Z,4.97
2018-05-04T02:19:42.278Z,4.97
2018-05-04T02:22:10.678Z,4.95
2018-05-04T02:24:39.840Z,4.99
2018-05-04T02:27:09.007Z,4.94
2018-05-04T02:29:37.377Z,4.90
2018-05-04T02:32:06.087Z,4.98
2018-05-04T02:34:34.466Z,4.91
2018-05-04T02:37:02.868Z,4.85
2018-05-04T02:39:31.311Z,4.75
2018-05-04T02:42:00.494Z,4.80
2018-05-04T02:44:28.908Z,4.69
2018-05-04T02:46:57.303Z,4.75
2018-05-04T02:49:25.791Z,4.71
2018-05-04T02:51:54.274Z,4.65
2018-05-04T02:54:22.726Z,4.66
2018-05-04T02:56:51.918Z,4.76
2018-05-04T02:59:21.061Z,4.73
2018-05-04T03:01:49.462Z,4.72
2018-05-04T03:04:17.875Z,4.67
2018-05-04T03:06:46.290Z,4.66
2018-05-04T03:09:15.448Z,4.57
2018-05-04T03:11:43.810Z,4.54
2018-05-04T03:14:12.186Z,4.55
2018-05-04T03:16:40.665Z,4.55
2018-05-04T03:19:09.050Z,4.52
2018-05-04T03:21:37.435Z,4.48
2018-05-04T03:24:05.820Z,4.49
2018-05-04T03:26:34.216Z,4.52
2018-05-04T03:29:02.620Z,4.44
2018-05-04T03:31:30.989Z,4.41
2018-05-04T03:33:59.397Z,4.40
2018-05-04T03:36:27.770Z,4.37
2018-05-04T03:38:56.182Z,4.36
2018-05-04T03:41:24.602Z,4.36
2018-05-04T03:43:53.005Z,4.31
2018-05-04T03:46:22.173Z,4.28
2018-05-04T03:48:51.469Z,4.25
2018-05-04T03:51:19.893Z,4.28
2018-05-04T03:53:48.375Z,4.42
2018-05-04T03:56:16.888Z,4.50
2018-05-04T03:59:02.842Z,4.42
2018-05-04T04:01:48.783Z,4.41
2018-05-04T04:04:17.403Z,4.38
2018-05-04T04:06:45.790Z,4.32
2018-05-04T04:09:14.213Z,4.27
2018-05-04T04:11:42.596Z,4.22
2018-05-04T04:14:10.973Z,4.22
2018-05-04T04:16:39.345Z,4.27
2018-05-04T04:19:07.706Z,4.26
2018-05-04T04:21:36.077Z,4.29
2018-05-04T04:24:04.475Z,4.25
2018-05-04T04:26:32.939Z,4.25
2018-05-04T04:29:01.317Z,4.28
2018-05-04T04:31:29.691Z,4.29
2018-05-04T04:33:58.110Z,4.33
2018-05-04T04:36:26.734Z,4.39
2018-05-04T04:38:55.174Z,4.48
2018-05-04T04:41:24.305Z,4.51
2018-05-04T04:43:52.686Z,4.54
2018-05-04T04:46:22.103Z,4.60
2018-05-04T04:48:51.614Z,4.70
2018-05-04T04:51:20.098Z,4.71
2018-05-04T04:53:49.300Z,4.75
2018-05-04T04:56:19.346Z,4.81
2018-05-04T04:58:48.639Z,4.84
2018-05-04T05:01:17.829Z,4.92
2018-05-04T05:03:46.719Z,5.02
2018-05-04T05:06:16.693Z,5.11
2018-05-04T05:08:45.087Z,5.23
2018-05-04T05:11:15.235Z,5.33
2018-05-04T05:13:45.350Z,5.51
2018-05-04T05:16:13.802Z,5.61
2018-05-04T05:18:42.288Z,5.73
2018-05-04T05:21:11.082Z,5.85
2018-05-04T05:23:39.560Z,5.99
2018-05-04T05:26:07.889Z,6.15
2018-05-04T05:28:36.330Z,6.30
2018-05-04T05:31:04.754Z,6.48
2018-05-04T05:33:33.147Z,6.71
2018-05-04T05:36:01.543Z,6.82
2018-05-04T05:38:30.726Z,6.98
2018-05-04T05:40:59.118Z,7.15
2018-05-04T05:43:27.530Z,7.36
2018-05-04T05:45:55.925Z,7.57
2018-05-04T05:48:24.394Z,7.70
2018-05-04T05:50:52.827Z,7.82
2018-05-04T05:53:21.238Z,7.95
2018-05-04T05:55:49.635Z,8.14
2018-05-04T05:58:18.794Z,8.31
2018-05-04T06:00:47.987Z,8.44
2018-05-04T06:03:16.374Z,8.65
2018-05-04T06:05:44.807Z,8.84
2018-05-04T06:08:13.984Z,9.02
2018-05-04T06:10:42.386Z,9.16
2018-05-04T06:13:11.561Z,9.50
2018-05-04T06:15:39.962Z,9.54
2018-05-04T06:18:09.209Z,10.02
2018-05-04T06:20:37.634Z,10.28
2018-05-04T06:23:06.028Z,10.61
2018-05-04T06:25:35.198Z,10.49
2018-05-04T06:28:03.634Z,10.70
2018-05-04T06:30:32.038Z,10.90
2018-05-04T06:33:00.471Z,11.24
2018-05-04T06:35:29.870Z,11.65
2018-05-04T06:37:58.335Z,12.01
2018-05-04T06:40:26.764Z,12.33
2018-05-04T06:42:56.147Z,12.78
2018-05-04T06:45:24.694Z,13.04
2018-05-04T06:47:53.122Z,13.64
2018-05-04T06:50:21.526Z,13.84
2018-05-04T06:52:50.754Z,14.69
2018-05-04T06:55:19.186Z,15.41
2018-05-04T06:57:47.597Z,15.58
2018-05-04T07:00:16.755Z,15.80
2018-05-04T07:02:45.139Z,16.62
2018-05-04T07:05:13.570Z,17.39
2018-05-04T07:07:42.730Z,16.73
2018-05-04T07:10:12.611Z,17.42
2018-05-04T07:12:40.993Z,18.93
2018-05-04T07:15:09.412Z,19.26
2018-05-04T07:17:37.787Z,19.89
2018-05-04T07:20:06.154Z,21.18
2018-05-04T07:22:34.582Z,19.74
2018-05-04T07:25:02.969Z,20.32
2018-05-04T07:27:31.351Z,21.55
2018-05-04T07:29:59.762Z,23.04
2018-05-04T07:32:28.162Z,23.60
2018-05-04T07:34:56.550Z,24.23
2018-05-04T07:37:24.975Z,24.59
2018-05-04T07:39:53.675Z,23.62
2018-05-04T07:42:22.098Z,24.33
2018-05-04T07:44:50.754Z,20.31
2018-05-04T07:47:19.129Z,21.80
2018-05-04T07:49:47.542Z,22.41
2018-05-04T07:52:15.992Z,22.29
2018-05-04T07:54:44.382Z,23.90
2018-05-04T07:57:12.770Z,22.50
2018-05-04T07:59:41.952Z,22.62
2018-05-04T08:02:10.506Z,22.27
2018-05-04T08:04:38.902Z,21.69
2018-05-04T08:07:07.318Z,22.84
2018-05-04T08:09:35.724Z,24.08
2018-05-04T08:12:05.052Z,23.77
2018-05-04T08:14:33.489Z,23.77
2018-05-04T08:17:01.899Z,23.90
2018-05-04T08:19:30.313Z,20.28
2018-05-04T08:21:58.726Z,22.40
2018-05-04T08:24:27.109Z,24.09
2018-05-04T08:26:57.023Z,23.04
2018-05-04T08:29:25.441Z,24.81
2018-05-04T08:31:53.822Z,23.73
2018-05-04T08:34:22.977Z,22.69
2018-05-04T08:36:51.366Z,23.58
2018-05-04T08:41:48.219Z,24.97
2018-05-04T08:44:16.645Z,26.74
2018-05-04T08:46:45.855Z,23.05
2018-05-04T08:49:14.221Z,22.11
2018-05-04T08:51:42.610Z,23.86
2018-05-04T08:54:11.008Z,23.02
2018-05-04T08:56:40.211Z,22.31
2018-05-04T08:59:09.418Z,22.67
2018-05-04T09:01:38.613Z,24.20
2018-05-04T09:04:07.774Z,24.58
2018-05-04T09:06:36.154Z,26.03
2018-05-04T09:09:04.610Z,27.53
2018-05-04T09:11:32.998Z,25.67
2018-05-04T09:14:01.415Z,25.04
2018-05-04T09:16:29.801Z,27.10
2018-05-04T09:18:58.181Z,26.71
2018-05-04T09:21:26.590Z,24.52
2018-05-04T09:23:55.742Z,26.74
2018-05-04T09:26:24.133Z,27.41
2018-05-04T09:28:52.513Z,28.20
2018-05-04T09:31:20.914Z,24.97
2018-05-04T09:33:49.324Z,23.51
2018-05-04T09:36:18.487Z,27.24
2018-05-04T09:38:46.882Z,25.52
2018-05-04T09:41:15.283Z,25.73
2018-05-04T09:43:43.746Z,27.76
2018-05-04T09:46:12.927Z,28.21
2018-05-04T09:48:41.392Z,28.08
2018-05-04T09:51:09.762Z,28.12
2018-05-04T09:53:38.933Z,28.14
2018-05-04T09:56:07.337Z,25.36
2018-05-04T09:58:36.491Z,25.86
2018-05-04T10:01:04.871Z,26.86
2018-05-04T10:03:33.331Z,27.51
2018-05-04T10:06:01.677Z,26.78
2018-05-04T10:08:31.122Z,25.46
2018-05-04T10:10:59.561Z,26.11
2018-05-04T10:13:27.958Z,23.57
2018-05-04T10:15:57.108Z,25.54
2018-05-04T10:18:25.498Z,26.28
2018-05-04T10:20:53.899Z,26.25
2018-05-04T10:23:22.305Z,26.15
2018-05-04T10:25:51.467Z,28.13
2018-05-04T10:28:19.854Z,26.61
2018-05-04T10:30:48.261Z,27.05
2018-05-04T10:33:16.747Z,28.34
2018-05-04T10:35:45.134Z,25.84
2018-05-04T10:38:14.597Z,27.65
2018-05-04T10:40:42.970Z,24.18
2018-05-04T10:43:11.334Z,25.28
2018-05-04T10:45:39.837Z,26.34
2018-05-04T10:48:08.294Z,27.93
2018-05-04T10:50:37.489Z,25.94
2018-05-04T10:53:06.658Z,25.70
2018-05-04T10:55:35.100Z,26.38
2018-05-04T10:58:03.504Z,27.14
2018-05-04T11:00:31.921Z,27.48
2018-05-04T11:03:00.297Z,26.95
2018-05-04T11:05:28.903Z,27.70
2018-05-04T11:07:58.009Z,26.82
2018-05-04T11:10:26.450Z,27.67
2018-05-04T11:12:54.878Z,27.30
2018-05-04T11:15:23.274Z,25.99
2018-05-04T11:17:52.454Z,26.68
2018-05-04T11:20:20.950Z,24.42
2018-05-04T11:22:49.329Z,25.87
2018-05-04T11:25:17.835Z,26.63
2018-05-04T11:27:46.205Z,26.82
2018-05-04T11:30:14.686Z,26.49
2018-05-04T11:32:43.860Z,27.69
2018-05-04T11:35:12.277Z,27.42
2018-05-04T11:37:41.438Z,26.66
2018-05-04T11:40:09.858Z,27.11
2018-05-04T11:42:39.051Z,25.95
2018-05-04T11:45:07.579Z,25.88
2018-05-04T11:47:36.267Z,27.25
2018-05-04T11:50:05.059Z,26.44
2018-05-04T11:52:33.480Z,26.63
2018-05-04T11:55:01.894Z,26.52
2018-05-04T11:57:32.023Z,26.02
2018-05-04T12:00:01.254Z,25.57
2018-05-04T12:02:29.658Z,26.86
2018-05-04T12:04:58.026Z,27.11
2018-05-04T12:07:26.463Z,27.21
2018-05-04T12:09:54.903Z,25.92
2018-05-04T12:12:23.315Z,26.13
2018-05-04T12:14:51.747Z,27.09
2018-05-04T12:17:20.159Z,26.21
2018-05-04T12:19:49.321Z,26.61
2018-05-04T12:22:18.493Z,26.17
2018-05-04T12:24:46.929Z,26.68
2018-05-04T12:27:15.303Z,26.42
2018-05-04T12:29:43.738Z,26.43
2018-05-04T12:32:12.155Z,26.37
2018-05-04T12:34:40.615Z,26.63
2018-05-04T12:37:09.067Z,26.46
2018-05-04T12:39:37.441Z,26.39
2018-05-04T12:42:05.917Z,26.94
2018-05-04T12:44:34.349Z,26.62
2018-05-04T12:47:02.803Z,26.43
2018-05-04T12:49:32.269Z,26.31
2018-05-04T12:52:01.458Z,25.99
2018-05-04T12:54:29.866Z,26.47
2018-05-04T12:56:58.330Z,26.97
2018-05-04T12:59:27.514Z,26.76
2018-05-04T13:01:56.188Z,25.88
2018-05-04T13:04:24.545Z,27.36
2018-05-04T13:06:52.950Z,26.41
2018-05-04T13:09:22.886Z,27.28
2018-05-04T13:11:52.127Z,27.72
2018-05-04T13:14:20.521Z,28.05
2018-05-04T13:16:48.998Z,27.04
2018-05-04T13:19:17.577Z,27.92
2018-05-04T13:21:46.761Z,26.37
2018-05-04T13:24:15.963Z,27.72
2018-05-04T13:26:46.080Z,27.79
2018-05-04T13:29:15.394Z,27.59
2018-05-04T13:31:46.521Z,27.29
2018-05-04T13:34:15.749Z,27.36
2018-05-04T13:36:46.001Z,26.38
2018-05-04T13:39:15.402Z,27.61
2018-05-04T13:41:43.789Z,26.50
2018-05-04T13:44:12.236Z,27.56
2018-05-04T13:46:40.666Z,27.71
2018-05-04T13:49:09.486Z,27.42
2018-05-04T13:51:38.082Z,27.54
2018-05-04T13:54:06.391Z,27.53
2018-05-04T13:56:35.635Z,26.45
2018-05-04T13:59:04.028Z,26.79
2018-05-04T14:01:32.730Z,27.18
2018-05-04T14:04:01.155Z,26.96
2018-05-04T14:06:30.323Z,27.02
2018-05-04T14:08:58.744Z,26.51
2018-05-04T14:11:27.925Z,26.45
2018-05-04T14:13:57.251Z,27.05
2018-05-04T14:16:26.445Z,27.58
2018-05-04T14:18:55.602Z,27.12
2018-05-04T14:21:24.079Z,27.20
2018-05-04T14:23:52.927Z,26.85
2018-05-04T14:26:22.099Z,25.66
2018-05-04T14:28:51.319Z,27.21
2018-05-04T14:31:20.538Z,27.61
2018-05-04T14:33:49.730Z,27.79
2018-05-04T14:36:18.145Z,27.52
2018-05-04T14:38:46.546Z,27.29
2018-05-04T14:41:14.963Z,28.23
2018-05-04T14:43:43.374Z,29.15
2018-05-04T14:46:12.803Z,29.03
2018-05-04T14:48:41.203Z,28.02
2018-05-04T14:51:09.600Z,29.53
2018-05-04T14:53:38.362Z,28.76
2018-05-04T14:56:06.782Z,28.22
2018-05-04T14:58:35.193Z,28.43
2018-05-04T15:01:03.665Z,26.77
2018-05-04T15:03:32.264Z,26.96
2018-05-04T15:06:00.648Z,28.39
2018-05-04T15:08:29.839Z,27.25
2018-05-04T15:10:58.222Z,28.19
2018-05-04T15:13:26.630Z,29.16
2018-05-04T15:15:56.111Z,29.00
2018-05-04T15:18:25.201Z,30.13
2018-05-04T15:20:53.608Z,26.72
2018-05-04T15:23:22.018Z,25.89
2018-05-04T15:25:50.438Z,27.76
2018-05-04T15:28:18.902Z,27.99
2018-05-04T15:30:47.321Z,27.37
2018-05-04T15:33:15.782Z,27.20
2018-05-04T15:35:44.191Z,26.54
2018-05-04T15:38:12.626Z,25.97
2018-05-04T15:40:41.043Z,26.11
2018-05-04T15:43:09.528Z,25.82
2018-05-04T15:45:38.256Z,24.85
2018-05-04T15:48:12.883Z,24.53
2018-05-04T15:50:46.891Z,23.32
2018-05-04T15:53:15.418Z,24.53
2018-05-04T15:55:43.853Z,24.43
2018-05-04T15:58:12.258Z,24.53
2018-05-04T16:00:42.379Z,23.42
2018-05-04T16:03:10.774Z,23.98
2018-05-04T16:05:39.967Z,24.29
2018-05-04T16:08:09.142Z,23.71
2018-05-04T16:10:37.555Z,23.07
2018-05-04T16:13:06.724Z,22.90
2018-05-04T16:15:35.134Z,24.21
2018-05-04T16:18:04.402Z,23.89
2018-05-04T16:20:32.809Z,24.31
2018-05-04T16:23:01.699Z,24.01
2018-05-04T16:25:30.086Z,24.02
2018-05-04T16:27:58.578Z,24.13
2018-05-04T16:30:27.015Z,23.92
2018-05-04T16:32:55.465Z,23.15
2018-05-04T16:35:24.629Z,24.05
2018-05-04T16:37:53.031Z,23.93
2018-05-04T16:40:21.436Z,23.08
2018-05-04T16:42:50.613Z,21.91
2018-05-04T16:45:19.026Z,21.81
2018-05-04T16:47:52.869Z,21.75
2018-05-04T16:50:21.283Z,21.15
2018-05-04T16:52:50.446Z,20.96
2018-05-04T16:55:18.860Z,20.79
2018-05-04T16:57:47.327Z,20.58
2018-05-04T17:00:15.745Z,20.67
2018-05-04T17:02:44.129Z,20.57
2018-05-04T17:05:13.416Z,20.41
2018-05-04T17:07:41.800Z,20.32
2018-05-04T17:10:10.205Z,20.39
2018-05-04T17:12:40.180Z,20.23
2018-05-04T17:15:08.627Z,20.30
2018-05-04T17:17:37.033Z,20.22
2018-05-04T17:20:05.434Z,20.03
2018-05-04T17:22:34.089Z,20.08
2018-05-04T17:25:02.634Z,19.96
2018-05-04T17:27:31.125Z,19.81
2018-05-04T17:29:59.552Z,19.76
2018-05-04T17:32:27.971Z,19.63
2018-05-04T17:34:56.461Z,19.88
2018-05-04T17:37:25.666Z,19.71
2018-05-04T17:39:54.078Z,19.62
2018-05-04T17:42:23.266Z,19.48
2018-05-04T17:44:51.702Z,19.56
2018-05-04T17:47:20.281Z,19.42
2018-05-04T17:49:49.663Z,19.44
2018-05-04T17:52:18.122Z,19.40
2018-05-04T17:54:46.562Z,19.21
2018-05-04T17:57:15.043Z,19.16
2018-05-04T17:59:43.556Z,18.96
2018-05-04T18:02:12.769Z,19.04
2018-05-04T18:04:41.940Z,19.01
2018-05-04T18:07:11.301Z,18.95
2018-05-04T18:09:39.733Z,18.93
2018-05-04T18:12:08.163Z,18.91
2018-05-04T18:14:36.590Z,18.76
2018-05-04T18:17:05.114Z,18.65
2018-05-04T18:19:34.059Z,18.55
2018-05-04T18:22:02.508Z,18.50
2018-05-04T18:24:30.923Z,18.68
2018-05-04T18:27:00.140Z,18.34
2018-05-04T18:29:28.568Z,18.29
2018-05-04T18:31:56.948Z,18.19
2018-05-04T18:34:25.370Z,18.01
2018-05-04T18:36:54.571Z,17.81
2018-05-04T18:39:23.826Z,17.68
2018-05-04T18:41:52.255Z,17.42
2018-05-04T18:47:00.438Z,17.36
2018-05-04T18:49:28.914Z,17.35
2018-05-04T18:51:57.378Z,17.20
2018-05-04T18:54:25.819Z,17.10
2018-05-04T18:56:54.226Z,17.22
2018-05-04T18:59:24.326Z,17.08
2018-05-04T19:01:53.512Z,16.87
2018-05-04T19:04:21.965Z,16.74
2018-05-04T19:06:50.392Z,16.56
2018-05-04T19:09:18.801Z,16.54
2018-05-04T19:11:47.228Z,16.54
2018-05-04T19:14:15.661Z,16.57
2018-05-04T19:16:44.916Z,16.52
2018-05-04T19:19:13.366Z,16.31
2018-05-04T19:21:41.807Z,16.40
2018-05-04T19:24:10.219Z,16.49
2018-05-04T19:26:39.407Z,16.52
2018-05-04T19:29:07.878Z,16.28
2018-05-04T19:31:36.252Z,16.37
2018-05-04T19:34:04.717Z,16.34
2018-05-04T19:36:33.129Z,16.26
2018-05-04T19:39:01.564Z,16.17
2018-05-04T19:41:29.979Z,16.43
2018-05-04T19:43:58.449Z,16.33
2018-05-04T19:46:27.186Z,16.14
2018-05-04T19:48:55.642Z,15.95
2018-05-04T19:51:24.053Z,15.84
2018-05-04T19:53:52.747Z,16.12
2018-05-04T19:56:21.934Z,16.26
2018-05-04T19:58:50.402Z,16.23
2018-05-04T20:01:18.803Z,16.34
2018-05-04T20:03:47.233Z,16.09
2018-05-04T20:06:16.001Z,15.71
2018-05-04T20:08:45.193Z,15.55
2018-05-04T20:11:13.602Z,15.48
2018-05-04T20:13:42.004Z,15.91
2018-05-04T20:16:10.381Z,16.03
2018-05-04T20:18:38.879Z,16.03
2018-05-04T20:21:07.355Z,15.95
2018-05-04T20:23:35.787Z,15.87
2018-05-04T20:26:04.241Z,15.89
2018-05-04T20:28:32.717Z,15.80
2018-05-04T20:31:01.194Z,15.62
2018-05-04T20:33:29.666Z,15.60
2018-05-04T20:35:58.198Z,15.49
2018-05-04T20:38:26.613Z,15.30
2018-05-04T20:40:55.823Z,15.13
2018-05-04T20:43:24.265Z,14.96
2018-05-04T20:45:53.001Z,15.17
2018-05-04T20:48:25.875Z,15.22
2018-05-04T20:50:54.380Z,15.09
2018-05-04T20:53:23.783Z,15.05
2018-05-04T20:55:52.998Z,15.13
2018-05-04T20:58:21.429Z,14.90
2018-05-04T21:00:50.969Z,14.81
2018-05-04T21:03:20.172Z,14.57
2018-05-04T21:05:48.714Z,14.43
2018-05-04T21:08:18.778Z,14.28
2018-05-04T21:10:47.289Z,14.24
2018-05-04T21:13:16.436Z,14.25
2018-05-04T21:15:44.871Z,14.18
2018-05-04T21:18:13.361Z,14.13
2018-05-04T21:20:41.816Z,14.19
2018-05-04T21:23:11.190Z,14.01
2018-05-04T21:25:39.772Z,14.09
2018-05-04T21:28:08.256Z,14.10
2018-05-04T21:30:40.106Z,14.03
2018-05-04T21:33:08.719Z,14.02
2018-05-04T21:35:37.131Z,13.88
2018-05-04T21:38:06.324Z,13.74
2018-05-04T21:40:35.502Z,13.84
2018-05-04T21:43:03.914Z,13.82
2018-05-04T21:45:33.098Z,13.65
2018-05-04T21:48:01.521Z,13.56
2018-05-04T21:50:30.159Z,14.01
2018-05-04T21:52:58.572Z,13.88
2018-05-04T21:55:27.766Z,13.57
2018-05-04T21:57:56.312Z,13.49
2018-05-04T22:00:24.808Z,13.34
2018-05-04T22:02:54.105Z,13.11
2018-05-04T22:05:22.514Z,13.25
2018-05-04T22:07:54.944Z,13.33
2018-05-04T22:10:23.590Z,13.40
2018-05-04T22:12:53.686Z,13.52
2018-05-04T22:15:23.912Z,13.49
2018-05-04T22:17:52.394Z,13.35
2018-05-04T22:20:20.808Z,13.46
2018-05-04T22:22:53.621Z,13.45
2018-05-04T22:25:27.793Z,13.20
2018-05-04T22:28:04.379Z,13.01
2018-05-04T22:30:33.858Z,12.71
2018-05-04T22:33:03.676Z,12.46
2018-05-04T22:35:32.513Z,12.31
2018-05-04T22:38:01.932Z,12.18
2018-05-04T22:40:31.006Z,12.05
2018-05-04T22:43:00.221Z,11.90
2018-05-04T22:45:28.732Z,11.75
2018-05-04T22:47:57.157Z,11.67
2018-05-04T22:50:25.586Z,11.52
2018-05-04T22:52:54.230Z,11.45
2018-05-04T22:55:22.711Z,11.35
2018-05-04T22:57:51.849Z,11.24
2018-05-04T23:00:24.598Z,11.19
2018-05-04T23:02:53.010Z,11.25
2018-05-04T23:05:22.204Z,11.22
2018-05-04T23:07:51.300Z,11.12
2018-05-04T23:10:20.514Z,11.02
2018-05-04T23:12:49.742Z,10.89
2018-05-04T23:15:18.436Z,10.81
2018-05-04T23:17:47.213Z,10.65
2018-05-04T23:20:15.681Z,10.63
2018-05-04T23:22:44.858Z,10.55
2018-05-04T23:25:13.283Z,10.47
2018-05-04T23:27:41.687Z,10.43
2018-05-04T23:30:10.423Z,10.36
2018-05-04T23:32:38.939Z,10.24
2018-05-04T23:35:07.357Z,10.15
2018-05-04T23:37:35.782Z,10.16
2018-05-04T23:40:04.939Z,10.07
2018-05-04T23:42:33.426Z,9.99
2018-05-04T23:45:01.860Z,9.95
2018-05-04T23:47:31.016Z,9.90
2018-05-04T23:49:59.749Z,9.92
2018-05-04T23:52:28.962Z,9.92
2018-05-04T23:54:57.519Z,9.95
2018-05-04T23:57:25.935Z,10.20
2018-05-04T23:59:55.116Z,10.13
